createdAt,value
2022-09-10T00:02:53.107Z,21.01
2022-09-10T00:05:20.290Z,21.03
2022-09-10T00:08:00.463Z,21.04
2022-09-10T00:10:40.963Z,21.01
2022-09-10T00:20:35.482Z,20.97
2022-09-10T00:23:09.063Z,20.92
2022-09-10T00:25:43.463Z,20.91
2022-09-10T00:28:19.725Z,20.89
2022-09-10T00:31:01.507Z,20.90
2022-09-10T00:33:35.303Z,20.87
2022-09-10T00:36:10.463Z,20.84
2022-09-10T00:49:48.482Z,20.74
2022-09-10T00:52:23.323Z,20.71
2022-09-10T00:54:57.462Z,20.68
2022-09-10T00:57:31.548Z,20.67
2022-09-10T01:00:11.460Z,20.65
2022-09-10T01:14:09.480Z,20.40
2022-09-10T01:16:59.361Z,20.34
2022-09-10T01:20:21.503Z,20.28
2022-09-10T01:23:27.463Z,20.23
2022-09-10T01:26:27.470Z,20.22
2022-09-10T01:29:12.018Z,20.18
2022-09-10T01:42:13.419Z,20.16
2022-09-10T01:45:00.324Z,20.17
2022-09-10T01:48:11.620Z,20.15
2022-09-10T01:51:06.498Z,20.17
2022-09-10T01:54:05.819Z,20.16
2022-09-10T02:07:32.437Z,20.09
2022-09-10T02:10:16.475Z,20.05
2022-09-10T02:12:50.275Z,20.02
2022-09-10T02:15:53.435Z,20.00
2022-09-10T02:18:34.148Z,19.97
2022-09-10T02:21:17.469Z,19.95
2022-09-10T02:34:29.509Z,19.83
2022-09-10T02:37:03.928Z,19.83
2022-09-10T02:43:02.486Z,19.83
2022-09-10T02:45:36.087Z,19.80
2022-09-10T02:48:10.694Z,19.77
2022-09-10T02:50:50.708Z,19.74
2022-09-10T03:01:10.448Z,19.74
2022-09-10T03:03:49.752Z,19.72
2022-09-10T03:06:33.452Z,19.71
2022-09-10T03:09:07.050Z,19.72
2022-09-10T03:11:41.463Z,19.72
2022-09-10T03:14:14.983Z,19.70
2022-09-10T03:16:48.424Z,19.71
2022-09-10T03:30:07.456Z,19.68
2022-09-10T03:32:41.558Z,19.67
2022-09-10T03:35:16.436Z,19.63
2022-09-10T03:37:50.039Z,19.62
2022-09-10T03:40:24.500Z,19.60
2022-09-10T03:54:30.823Z,19.55
2022-09-10T03:57:07.160Z,19.55
2022-09-10T03:59:41.562Z,19.53
2022-09-10T04:02:15.201Z,19.52
2022-09-10T04:04:49.428Z,19.49
2022-09-10T04:07:22.962Z,19.49
2022-09-10T04:09:57.457Z,19.51
2022-09-10T04:23:09.437Z,19.49
2022-09-10T04:25:43.836Z,19.47
2022-09-10T04:28:18.437Z,19.46
2022-09-10T04:30:53.557Z,19.42
2022-09-10T04:33:29.457Z,19.39
2022-09-10T04:36:04.797Z,19.37
2022-09-10T04:48:55.398Z,19.38
2022-09-10T04:51:35.477Z,19.38
2022-09-10T04:54:10.756Z,19.37
2022-09-10T04:56:44.637Z,19.39
2022-09-10T04:59:18.336Z,19.37
2022-09-10T05:14:50.439Z,19.28
2022-09-10T05:17:24.125Z,19.28
2022-09-10T05:19:58.598Z,19.27
2022-09-10T05:22:39.744Z,19.26
2022-09-10T05:25:21.577Z,19.25
2022-09-10T05:27:55.015Z,19.23
2022-09-10T05:30:31.475Z,19.22
2022-09-10T05:43:41.476Z,19.18
2022-09-10T05:46:17.722Z,19.21
2022-09-10T05:49:01.521Z,19.23
2022-09-10T05:51:34.943Z,19.25
2022-09-10T05:54:10.476Z,19.24
2022-09-10T05:56:44.157Z,19.23
2022-09-10T06:09:34.436Z,19.27
2022-09-10T06:12:26.456Z,19.25
2022-09-10T06:15:00.063Z,19.23
2022-09-10T06:17:33.456Z,19.24
2022-09-10T06:20:08.235Z,19.25
2022-09-10T06:36:27.455Z,19.21
2022-09-10T06:39:01.796Z,19.24
2022-09-10T06:41:37.477Z,19.27
2022-09-10T06:44:28.336Z,19.25
2022-09-10T06:50:15.860Z,19.25
2022-09-10T07:02:26.479Z,19.37
2022-09-10T07:05:08.855Z,19.36
2022-09-10T07:07:43.683Z,19.33
2022-09-10T07:10:17.456Z,19.32
2022-09-10T07:12:52.255Z,19.33
2022-09-10T07:15:27.456Z,19.33
2022-09-10T07:28:39.569Z,19.37
2022-09-10T07:31:20.581Z,19.38
2022-09-10T07:34:02.456Z,19.39
2022-09-10T07:36:37.001Z,19.39
2022-09-10T07:39:11.577Z,19.43
2022-09-10T07:41:45.256Z,19.47
2022-09-10T07:55:20.398Z,19.55
2022-09-10T07:58:00.482Z,19.58
2022-09-10T08:00:35.584Z,19.60
2022-09-10T08:03:13.415Z,19.61
2022-09-10T08:05:48.156Z,19.65
2022-09-10T08:08:24.137Z,19.68
2022-09-10T08:11:11.721Z,19.71
2022-09-10T08:24:10.437Z,19.80
2022-09-10T08:26:56.416Z,19.80
2022-09-10T08:29:30.236Z,19.80
2022-09-10T08:32:05.456Z,19.79
2022-09-10T08:34:39.239Z,19.79
2022-09-10T08:51:05.456Z,19.92
2022-09-10T08:53:53.696Z,19.96
2022-09-10T08:56:35.477Z,19.99
2022-09-10T08:59:20.117Z,20.00
2022-09-10T09:02:06.501Z,20.02
2022-09-10T09:04:47.016Z,20.04
2022-09-10T09:18:04.416Z,20.19
2022-09-10T09:20:51.436Z,20.22
2022-09-10T09:23:47.944Z,20.26
2022-09-10T09:26:42.435Z,20.32
2022-09-10T09:29:25.235Z,20.35
2022-09-10T09:42:34.416Z,20.59
2022-09-10T09:45:30.519Z,20.69
2022-09-10T09:48:06.403Z,20.80
2022-09-10T09:50:45.443Z,20.87
2022-09-10T09:53:24.491Z,20.91
2022-09-10T09:56:07.424Z,20.94
2022-09-10T10:09:28.442Z,21.26
2022-09-10T10:12:04.659Z,21.36
2022-09-10T10:14:48.467Z,21.45
2022-09-10T10:17:34.585Z,21.54
2022-09-10T10:20:19.662Z,21.61
2022-09-10T10:22:53.163Z,21.64
2022-09-10T10:25:45.465Z,21.68
2022-09-10T10:35:52.402Z,22.04
2022-09-10T10:38:38.539Z,22.13
2022-09-10T10:41:44.711Z,22.21
2022-09-10T10:45:10.424Z,22.27
2022-09-10T10:47:53.424Z,22.30
2022-09-10T10:50:50.940Z,22.30
2022-09-10T11:04:32.423Z,22.42
2022-09-10T11:07:16.464Z,22.54
2022-09-10T11:10:06.552Z,22.67
2022-09-10T11:12:46.125Z,22.77
2022-09-10T11:15:38.522Z,22.85
2022-09-10T11:29:30.491Z,22.99
2022-09-10T11:32:12.804Z,22.95
2022-09-10T11:35:10.443Z,22.93
2022-09-10T11:37:59.343Z,22.92
2022-09-10T11:40:49.451Z,22.91
2022-09-10T11:43:36.723Z,22.91
2022-09-10T11:46:27.524Z,22.89
2022-09-10T11:56:49.386Z,22.85
2022-09-10T12:00:03.578Z,22.86
2022-09-10T12:03:18.390Z,22.95
2022-09-10T12:06:13.464Z,23.05
2022-09-10T12:09:05.804Z,23.11
2022-09-10T12:12:00.464Z,23.19
2022-09-10T12:22:39.464Z,23.61
2022-09-10T12:25:36.643Z,23.74
2022-09-10T12:28:59.863Z,23.86
2022-09-10T12:32:32.445Z,23.99
2022-09-10T12:35:45.024Z,24.11
2022-09-10T12:49:25.363Z,24.14
2022-09-10T12:52:08.465Z,24.12
2022-09-10T12:54:57.044Z,24.07
2022-09-10T12:57:50.503Z,24.02
2022-09-10T13:00:40.824Z,23.98
2022-09-10T13:03:24.461Z,23.94
2022-09-10T13:06:03.761Z,23.92
2022-09-10T13:16:20.481Z,24.09
2022-09-10T13:19:29.170Z,24.09
2022-09-10T13:22:09.443Z,24.08
2022-09-10T13:25:03.842Z,24.04
2022-09-10T13:27:48.842Z,24.11
2022-09-10T13:30:23.993Z,24.26
2022-09-10T13:43:51.403Z,24.26
2022-09-10T13:46:42.479Z,24.31
2022-09-10T13:49:26.643Z,24.30
2022-09-10T13:52:11.423Z,24.25
2022-09-10T13:54:52.143Z,24.19
2022-09-10T14:11:24.481Z,24.01
2022-09-10T14:14:06.623Z,24.12
2022-09-10T14:16:53.442Z,24.38
2022-09-10T14:19:41.163Z,24.69
2022-09-10T14:22:25.481Z,24.87
2022-09-10T14:25:02.015Z,25.01
2022-09-10T14:41:46.484Z,26.42
2022-09-10T14:44:28.599Z,26.64
2022-09-10T14:47:20.439Z,26.75
2022-09-10T14:49:54.051Z,26.90
2022-09-10T15:03:20.419Z,27.13
2022-09-10T15:08:31.019Z,27.24
2022-09-10T15:10:58.221Z,27.26
2022-09-10T15:13:43.447Z,27.25
2022-09-10T15:16:18.007Z,27.17
2022-09-10T15:32:32.954Z,26.45
2022-09-10T15:35:07.914Z,26.33
2022-09-10T15:37:41.514Z,26.27
2022-09-10T15:40:15.444Z,26.18
2022-09-10T15:42:49.513Z,26.16
2022-09-10T15:45:23.114Z,26.15
2022-09-10T15:58:13.435Z,26.30
2022-09-10T16:00:53.453Z,26.31
2022-09-10T16:03:26.915Z,26.33
2022-09-10T16:06:06.544Z,26.35
2022-09-10T16:08:41.561Z,26.40
2022-09-10T16:11:17.494Z,26.44
2022-09-10T16:24:29.454Z,26.22
2022-09-10T16:27:03.502Z,26.09
2022-09-10T16:29:37.476Z,25.97
2022-09-10T16:32:11.334Z,25.78
2022-09-10T16:34:46.854Z,25.67
2022-09-10T16:51:27.464Z,24.97
2022-09-10T16:54:10.537Z,24.86
2022-09-10T16:56:47.135Z,24.78
2022-09-10T16:59:29.504Z,24.69
2022-09-10T17:02:03.060Z,24.61
2022-09-10T17:04:36.504Z,24.55
2022-09-10T17:07:11.915Z,24.47
2022-09-10T17:17:05.515Z,24.21
2022-09-10T17:19:39.035Z,24.13
2022-09-10T17:22:12.456Z,24.07
2022-09-10T17:24:47.876Z,24.01
2022-09-10T17:27:25.283Z,23.94
2022-09-10T17:29:58.998Z,23.87
2022-09-10T17:45:16.521Z,23.52
2022-09-10T17:47:50.057Z,23.46
2022-09-10T17:50:23.497Z,23.42
2022-09-10T17:52:56.980Z,23.37
2022-09-10T17:55:33.557Z,23.33
2022-09-10T18:12:12.546Z,23.11
2022-09-10T18:14:52.456Z,23.08
2022-09-10T18:17:26.017Z,23.05
2022-09-10T18:19:59.456Z,23.00
2022-09-10T18:22:33.152Z,22.97
2022-09-10T18:25:06.496Z,22.93
2022-09-10T18:38:18.458Z,22.75
2022-09-10T18:40:51.935Z,22.72
2022-09-10T18:43:27.116Z,22.68
2022-09-10T18:46:02.923Z,22.64
2022-09-10T18:48:39.536Z,22.60
2022-09-10T18:51:14.876Z,22.56
2022-09-10T19:04:05.455Z,22.40
2022-09-10T19:06:48.475Z,22.37
2022-09-10T19:09:24.676Z,22.35
2022-09-10T19:12:00.507Z,22.31
2022-09-10T19:14:34.296Z,22.30
2022-09-10T19:17:11.923Z,22.27
2022-09-10T19:19:48.095Z,22.22
2022-09-10T19:31:53.435Z,22.12
2022-09-10T19:34:33.504Z,22.10
2022-09-10T19:37:08.937Z,22.08
2022-09-10T19:39:42.496Z,22.04
2022-09-10T19:42:16.035Z,22.03
2022-09-10T19:44:50.443Z,22.00
2022-09-10T19:58:02.475Z,21.87
2022-09-10T20:00:46.739Z,21.85
2022-09-10T20:03:27.493Z,21.83
2022-09-10T20:06:00.933Z,21.81
2022-09-10T20:08:34.474Z,21.79
2022-09-10T20:11:15.641Z,21.79
2022-09-10T20:24:24.395Z,21.66
2022-09-10T20:27:04.434Z,21.63
2022-09-10T20:29:38.054Z,21.60
2022-09-10T20:32:12.454Z,21.57
2022-09-10T20:34:45.983Z,21.57
2022-09-10T20:37:19.494Z,21.55
2022-09-10T20:39:55.106Z,21.53
2022-09-10T20:52:43.415Z,21.44
2022-09-10T20:55:25.473Z,21.42
2022-09-10T20:57:58.873Z,21.41
2022-09-10T21:00:32.514Z,21.42
2022-09-10T21:03:06.054Z,21.38
2022-09-10T21:05:39.493Z,21.37
2022-09-10T21:18:55.052Z,21.30
2022-09-10T21:21:31.873Z,21.28
2022-09-10T21:24:15.475Z,21.25
2022-09-10T21:26:50.318Z,21.25
2022-09-10T21:29:26.463Z,21.27
2022-09-10T21:32:00.022Z,21.24
2022-09-10T21:44:50.454Z,21.17
2022-09-10T21:47:30.453Z,21.14
2022-09-10T21:50:05.033Z,21.12
2022-09-10T21:52:39.853Z,21.12
2022-09-10T21:55:14.214Z,21.07
2022-09-10T21:57:47.455Z,21.06
2022-09-10T22:00:23.233Z,21.02
2022-09-10T22:13:11.434Z,20.88
2022-09-10T22:15:57.490Z,20.84
2022-09-10T22:18:31.382Z,20.81
2022-09-10T22:21:06.462Z,20.78
2022-09-10T22:23:40.302Z,20.78
2022-09-10T22:26:18.524Z,20.77
2022-09-10T22:39:30.442Z,20.69
2022-09-10T22:42:04.385Z,20.66
2022-09-10T22:44:38.465Z,20.65
2022-09-10T22:47:11.942Z,20.59
2022-09-10T22:49:45.462Z,20.57
2022-09-10T23:05:52.382Z,20.43
2022-09-10T23:08:32.555Z,20.42
2022-09-10T23:11:12.003Z,20.42
2022-09-10T23:13:55.483Z,20.41
2022-09-10T23:16:32.724Z,20.39
2022-09-10T23:19:20.064Z,20.37
2022-09-10T23:21:55.863Z,20.35
2022-09-10T23:31:41.462Z,20.35
2022-09-10T23:34:17.942Z,20.34
2022-09-10T23:37:01.483Z,20.29
2022-09-10T23:39:35.330Z,20.28
2022-09-10T23:42:09.502Z,20.28
2022-09-10T23:44:43.546Z,20.26
2022-09-10T23:47:17.465Z,20.25
